Time;durP1;ratioP1;P1;durP2;ratioP2;P2;SDS_P1;SDS_P2;PMS_P1;PMS_P2;Temp;Humidity;BMP_temperature;BMP_pressure;BME280_temperature;BME280_humidity;BME280_pressure;Samples;Min_cycle;Max_cycle;Signal;HPM_P1;HPM_P2
2023/02/07 00:01:51;;;;;;;10.60;7.60;;;;;;;-2.80;65.54;101744.88;102509;1295;600398;-73
2023/02/07 00:04:19;;;;;;;9.30;7.10;;;;;;;-2.80;65.48;101746.95;105067;1272;59257;-72
2023/02/07 00:06:47;;;;;;;10.00;7.10;;;;;;;-2.79;65.50;101745.58;104972;1267;59341;-73
2023/02/07 00:09:16;;;;;;;10.00;7.20;;;;;;;-2.79;65.54;101747.13;105046;1271;65386;-72
2023/02/07 00:11:44;;;;;;;9.70;6.80;;;;;;;-2.79;65.53;101748.33;105300;1264;59683;-72
2023/02/07 00:14:12;;;;;;;10.30;7.50;;;;;;;-2.79;65.48;101747.98;105336;1263;65433;-72
2023/02/07 00:16:41;;;;;;;11.10;7.60;;;;;;;-2.79;65.54;101746.78;105584;1260;158389;-72
2023/02/07 00:19:09;;;;;;;10.70;7.70;;;;;;;-2.80;65.56;101749.36;105790;1258;59344;-72
2023/02/07 00:21:38;;;;;;;9.80;6.90;;;;;;;-2.80;65.51;101746.42;105258;1260;64750;-75
2023/02/07 00:24:09;;;;;;;10.30;7.50;;;;;;;-2.81;65.58;101743.50;105861;1256;59548;-74
2023/02/07 00:26:38;;;;;;;10.00;7.00;;;;;;;-2.82;65.57;101742.98;105850;1254;65575;-73
2023/02/07 00:29:06;;;;;;;10.90;7.40;;;;;;;-2.84;65.60;101745.06;105783;1255;59679;-72
2023/02/07 00:31:35;;;;;;;10.40;7.10;;;;;;;-2.85;65.59;101743.18;105706;1254;59568;-73
2023/02/07 00:34:05;;;;;;;10.80;7.70;;;;;;;-2.87;65.62;101744.56;105654;1264;65709;-73
2023/02/07 00:36:35;;;;;;;12.30;7.50;;;;;;;-2.90;65.66;101742.31;105648;1261;59918;-75
2023/02/07 00:39:11;;;;;;;12.50;7.80;;;;;;;-2.91;65.66;101735.77;105835;1257;64594;-72
2023/02/07 00:41:40;;;;;;;11.10;8.10;;;;;;;-2.93;65.75;101731.64;105728;1255;59632;-72
2023/02/07 00:44:09;;;;;;;12.10;8.00;;;;;;;-2.93;65.80;101729.91;105966;1254;59641;-72
2023/02/07 00:46:38;;;;;;;9.30;7.20;;;;;;;-2.93;65.84;101729.58;105539;1260;65900;-75
2023/02/07 00:49:07;;;;;;;10.80;8.10;;;;;;;-2.93;65.87;101725.77;105844;1257;59713;-72
2023/02/07 00:51:36;;;;;;;10.10;7.80;;;;;;;-2.94;65.89;101727.68;105871;1257;65222;-74
2023/02/07 00:54:06;;;;;;;10.60;7.80;;;;;;;-2.94;65.80;101729.40;105739;1254;59858;-74
2023/02/07 00:56:35;;;;;;;10.40;7.60;;;;;;;-2.96;65.85;101727.86;105912;1253;59634;-74
2023/02/07 00:59:03;;;;;;;10.50;7.40;;;;;;;-2.97;65.91;101725.80;106015;1256;66142;-73
2023/02/07 01:01:32;;;;;;;10.20;7.90;;;;;;;-2.98;65.90;101725.98;105671;1254;60041;-73
2023/02/07 01:04:01;;;;;;;11.50;7.70;;;;;;;-2.99;65.96;101729.42;105930;1257;65642;-74
2023/02/07 01:06:32;;;;;;;10.00;8.00;;;;;;;-3.01;66.02;101734.92;105770;1257;59625;-73
2023/02/07 01:09:02;;;;;;;10.30;7.70;;;;;;;-3.01;66.00;101735.27;105989;1254;59682;-72
2023/02/07 01:11:31;;;;;;;8.80;7.20;;;;;;;-3.02;65.97;101732.17;105554;1260;65760;-74
2023/02/07 01:14:02;;;;;;;10.00;7.40;;;;;;;-3.02;65.97;101727.52;105688;1254;59687;-73
2023/02/07 01:16:33;;;;;;;9.30;7.60;;;;;;;-3.02;66.07;101723.38;106201;1257;65640;-73
2023/02/07 01:19:06;;;;;;;10.20;7.80;;;;;;;-3.03;66.08;101723.56;105880;1255;59616;-75
2023/02/07 01:21:35;;;;;;;10.30;7.80;;;;;;;-3.04;66.13;101716.84;105744;1254;59575;-74
2023/02/07 01:24:06;;;;;;;9.10;7.40;;;;;;;-3.05;66.13;101712.20;105777;1257;65639;-74
2023/02/07 01:26:36;;;;;;;10.70;8.00;;;;;;;-3.07;66.11;101708.42;105685;1260;59508;-74
2023/02/07 01:29:06;;;;;;;10.70;7.30;;;;;;;-3.08;66.05;101711.69;105772;1253;64002;-74
2023/02/07 01:31:36;;;;;;;11.00;7.40;;;;;;;-3.10;66.02;101716.84;105747;1253;59621;-73
2023/02/07 01:34:04;;;;;;;9.70;7.40;;;;;;;-3.12;66.02;101714.62;105693;1254;61236;-73
2023/02/07 01:36:33;;;;;;;12.60;8.30;;;;;;;-3.13;66.14;101719.27;105781;1257;65972;-74
2023/02/07 01:39:02;;;;;;;9.90;7.90;;;;;;;-3.14;66.19;101715.48;105777;1253;59742;-73
2023/02/07 01:41:34;;;;;;;9.90;7.50;;;;;;;-3.16;66.11;101710.85;105706;1254;64454;-73
2023/02/07 01:44:02;;;;;;;11.00;7.70;;;;;;;-3.17;66.14;101705.67;105769;1257;59629;-72
2023/02/07 01:46:32;;;;;;;10.00;7.90;;;;;;;-3.15;66.21;101700.85;105379;1259;59612;-75
2023/02/07 01:49:05;;;;;;;10.50;7.70;;;;;;;-3.16;66.22;101705.33;105772;1259;66258;-73
2023/02/07 01:51:33;;;;;;;10.80;7.60;;;;;;;-3.16;66.28;101703.09;105535;1260;59817;-73
2023/02/07 01:54:04;;;;;;;9.90;7.50;;;;;;;-3.15;66.28;101702.05;105782;1255;65305;-72
2023/02/07 01:56:32;;;;;;;10.90;7.70;;;;;;;-3.17;66.29;101700.34;105605;1260;59729;-73
2023/02/07 01:59:01;;;;;;;11.10;7.70;;;;;;;-3.17;66.33;101701.20;105767;1254;59736;-73
2023/02/07 02:01:31;;;;;;;10.10;7.40;;;;;;;-3.18;66.30;101700.69;105544;1260;65932;-73
2023/02/07 02:04:00;;;;;;;10.50;7.50;;;;;;;-3.19;66.35;101700.50;105738;1255;59930;-73
2023/02/07 02:06:53;;;;;;;10.30;7.50;;;;;;;-3.20;66.48;101703.77;106006;1257;65523;-72
2023/02/07 02:09:22;;;;;;;;;;;;;;;-3.20;66.52;101699.98;105919;1257;59634;-72
2023/02/07 02:12:21;;;;;;;9.10;6.60;;;;;;;-3.19;66.47;101701.02;105732;1258;59618;-74
2023/02/07 02:14:58;;;;;;;9.70;7.30;;;;;;;-3.20;66.53;101705.83;105665;1252;64675;-71
2023/02/07 02:17:58;;;;;;;11.20;7.30;;;;;;;-3.20;66.58;101705.15;105640;1254;59647;-74
2023/02/07 02:20:52;;;;;;;10.10;7.50;;;;;;;-3.20;66.64;101702.73;105667;1254;65058;-74
2023/02/07 02:23:43;;;;;;;10.80;7.80;;;;;;;-3.19;66.67;101703.25;105527;1259;59565;-74
2023/02/07 02:26:39;;;;;;;10.20;7.70;;;;;;;-3.19;66.66;101708.09;105763;1257;59633;-73
2023/02/07 02:29:31;;;;;;;10.80;7.80;;;;;;;-3.19;66.70;101707.22;105832;1257;64637;-72
2023/02/07 02:32:17;;;;;;;10.80;8.00;;;;;;;-3.20;66.75;101704.98;105870;1263;59960;-72
2023/02/07 02:34:58;;;;;;;10.50;8.20;;;;;;;-3.21;66.75;101705.33;105776;1254;65313;-72
2023/02/07 02:37:36;;;;;;;10.50;8.10;;;;;;;-3.22;66.78;101706.36;105634;1254;59705;-73
2023/02/07 02:40:28;;;;;;;11.70;8.30;;;;;;;-3.22;66.79;101707.39;105588;1254;59621;-72
2023/02/07 02:43:17;;;;;;;11.60;7.80;;;;;;;-3.20;66.85;101705.15;105667;1257;65724;-72
2023/02/07 02:45:55;;;;;;;10.80;7.80;;;;;;;-3.20;66.87;101707.39;105773;1254;60710;-72
2023/02/07 02:48:23;;;;;;;12.20;8.10;;;;;;;-3.20;66.82;101705.48;105736;1259;64277;-72
2023/02/07 02:50:52;;;;;;;11.70;8.10;;;;;;;-3.22;66.85;101700.52;105727;1254;59711;-72
2023/02/07 02:53:20;;;;;;;11.80;7.70;;;;;;;-3.23;66.84;101700.34;105709;1255;59644;-72
2023/02/07 02:56:13;;;;;;;12.00;8.00;;;;;;;-3.24;66.89;101698.28;105774;1257;65717;-72
2023/02/07 02:59:00;;;;;;;10.60;7.50;;;;;;;-3.25;66.91;101695.52;105752;1254;59720;-72
2023/02/07 03:01:47;;;;;;;9.80;7.50;;;;;;;-3.25;66.96;101697.94;105804;1254;65445;-72
2023/02/07 03:04:35;;;;;;;10.80;7.60;;;;;;;-3.25;67.00;101701.21;105824;1257;59711;-72
2023/02/07 03:07:29;;;;;;;9.40;7.40;;;;;;;-3.25;67.03;101701.90;105723;1254;59634;-72
2023/02/07 03:10:42;;;;;;;9.70;7.10;;;;;;;-3.24;66.99;101703.10;105810;1254;64962;-72
2023/02/07 03:13:24;;;;;;;10.30;7.80;;;;;;;-3.24;66.92;101701.20;105747;1254;60027;-72
2023/02/07 03:16:16;;;;;;;12.00;7.80;;;;;;;-3.23;67.03;101702.58;105803;1255;65252;-72
2023/02/07 03:19:02;;;;;;;9.90;7.00;;;;;;;-3.22;66.99;101704.82;105802;1254;59612;-72
2023/02/07 03:21:35;;;;;;;10.90;7.10;;;;;;;-3.21;66.96;101708.77;105781;1254;59644;-72
2023/02/07 03:24:07;;;;;;;9.50;7.30;;;;;;;-3.22;66.98;101710.15;105853;1257;66032;-72
2023/02/07 03:26:35;;;;;;;10.20;7.40;;;;;;;-3.21;67.00;101712.56;105836;1260;59733;-72
2023/02/07 03:29:06;;;;;;;10.20;7.80;;;;;;;-3.22;66.95;101714.63;105690;1254;65618;-72
2023/02/07 03:31:37;;;;;;;9.70;7.30;;;;;;;-3.22;66.93;101712.05;105873;1257;59632;-72
2023/02/07 03:34:08;;;;;;;12.30;8.10;;;;;;;-3.23;66.98;101712.91;105830;1260;59627;-72
2023/02/07 03:36:45;;;;;;;11.00;7.70;;;;;;;-3.23;67.03;101715.16;105770;1254;65840;-72
2023/02/07 03:39:13;;;;;;;9.90;7.50;;;;;;;-3.22;67.07;101717.39;105618;1257;59648;-71
2023/02/07 03:41:43;;;;;;;10.30;7.50;;;;;;;-3.20;67.10;101717.38;105695;1260;65480;-73
2023/02/07 03:44:12;;;;;;;11.60;8.20;;;;;;;-3.19;67.12;101715.14;105814;1254;59761;-73
2023/02/07 03:46:40;;;;;;;10.30;7.70;;;;;;;-3.19;67.06;101718.92;105823;1254;59771;-72
2023/02/07 03:49:08;;;;;;;9.40;7.70;;;;;;;-3.19;67.13;101715.84;105757;1253;65831;-72
2023/02/07 03:51:36;;;;;;;10.60;7.70;;;;;;;-3.18;67.17;101717.41;105677;1258;60345;-73
2023/02/07 03:54:04;;;;;;;11.20;8.10;;;;;;;-3.18;67.14;101719.12;105735;1257;64533;-73
2023/02/07 03:56:33;;;;;;;12.20;8.20;;;;;;;-3.17;67.16;101722.23;105835;1254;59640;-73
2023/02/07 03:59:01;;;;;;;11.60;8.30;;;;;;;-3.16;67.21;101721.35;105747;1254;59650;-72
2023/02/07 04:01:30;;;;;;;10.80;7.60;;;;;;;-3.16;67.13;101723.77;105461;1260;66144;-72
2023/02/07 04:03:59;;;;;;;12.00;8.10;;;;;;;-3.16;67.12;101719.29;105746;1254;59756;-72
2023/02/07 04:06:28;;;;;;;9.20;7.20;;;;;;;-3.15;67.12;101718.95;106004;1254;65558;-72
2023/02/07 04:08:57;;;;;;;11.90;8.20;;;;;;;-3.15;67.15;101715.15;105995;1257;59900;-73
2023/02/07 04:11:25;;;;;;;11.20;7.30;;;;;;;-3.16;67.08;101718.60;105733;1254;59733;-72
2023/02/07 04:13:56;;;;;;;13.20;7.40;;;;;;;-3.15;67.07;101718.09;105787;1256;65654;-73
2023/02/07 04:16:26;;;;;;;10.90;7.80;;;;;;;-3.15;67.05;101717.05;105885;1255;59719;-72
2023/02/07 04:18:56;;;;;;;9.40;7.20;;;;;;;-3.15;66.96;101718.94;106021;1254;65575;-73
2023/02/07 04:21:24;;;;;;;10.00;7.40;;;;;;;-3.15;66.77;101715.14;105686;1256;60533;-72
2023/02/07 04:23:52;;;;;;;10.00;6.90;;;;;;;-3.15;66.72;101717.39;105848;1254;60530;-73
2023/02/07 04:26:20;;;;;;;11.00;7.60;;;;;;;-3.15;66.56;101716.52;105813;1258;66611;-72
2023/02/07 04:28:49;;;;;;;9.70;7.00;;;;;;;-3.15;66.55;101717.56;105846;1253;60410;-73
2023/02/07 04:31:17;;;;;;;8.90;6.90;;;;;;;-3.14;66.43;101716.18;105932;1257;64292;-73
2023/02/07 04:33:47;;;;;;;12.50;7.60;;;;;;;-3.14;66.35;101718.23;105891;1254;60361;-73
2023/02/07 04:36:15;;;;;;;10.70;7.60;;;;;;;-3.14;66.32;101716.70;105809;1254;60364;-72
2023/02/07 04:38:43;;;;;;;10.00;7.20;;;;;;;-3.15;66.29;101713.08;105811;1253;65700;-73
2023/02/07 04:41:11;;;;;;;9.40;7.10;;;;;;;-3.14;66.21;101715.48;105871;1256;60446;-73
2023/02/07 04:43:42;;;;;;;10.20;7.80;;;;;;;-3.15;66.11;101712.39;106014;1253;65360;-73
2023/02/07 04:46:10;;;;;;;9.70;7.00;;;;;;;-3.17;65.98;101714.47;105993;1254;60507;-73
2023/02/07 04:48:41;;;;;;;10.10;7.10;;;;;;;-3.20;65.85;101714.63;105970;1253;60653;-73
2023/02/07 04:51:09;;;;;;;9.10;6.50;;;;;;;-3.23;65.80;101714.47;105763;1253;66737;-73
2023/02/07 04:53:37;;;;;;;8.60;6.70;;;;;;;-3.27;65.71;101715.34;105757;1255;60411;-73
2023/02/07 04:56:05;;;;;;;12.10;7.20;;;;;;;-3.31;65.63;101717.91;105626;1254;65397;-73
2023/02/07 04:58:34;;;;;;;11.20;7.20;;;;;;;-3.36;65.62;101719.48;105804;1254;60406;-73
2023/02/07 05:01:02;;;;;;;8.70;6.60;;;;;;;-3.42;65.50;101719.83;105759;1254;62109;-72
2023/02/07 05:03:30;;;;;;;10.60;7.20;;;;;;;-3.48;65.44;101723.27;105665;1254;65726;-74
2023/02/07 05:05:58;;;;;;;11.20;7.70;;;;;;;-3.54;65.53;101724.14;105865;1257;60307;-73
2023/02/07 05:08:27;;;;;;;9.60;6.80;;;;;;;-3.60;65.48;101724.13;105944;1253;65035;-73
2023/02/07 05:10:55;;;;;;;11.40;7.40;;;;;;;-3.66;65.45;101724.81;105809;1253;60410;-73
2023/02/07 05:13:24;;;;;;;12.80;7.60;;;;;;;-3.73;65.46;101728.26;105836;1253;60514;-73
2023/02/07 05:15:52;;;;;;;10.00;7.30;;;;;;;-3.80;65.39;101728.59;105905;1253;66422;-73
2023/02/07 05:18:20;;;;;;;9.60;7.00;;;;;;;-3.88;65.39;101735.80;105923;1253;67777;-74
2023/02/07 05:20:48;;;;;;;12.10;7.60;;;;;;;-3.95;65.49;101735.79;105680;1253;65372;-73
2023/02/07 05:23:19;;;;;;;10.40;7.80;;;;;;;-4.02;65.61;101732.52;105543;1258;60460;-75
2023/02/07 05:25:48;;;;;;;10.30;7.50;;;;;;;-4.09;65.65;101733.01;105639;1253;60356;-73
2023/02/07 05:28:16;;;;;;;11.50;7.60;;;;;;;-4.15;65.73;101735.74;105884;1254;66729;-72
2023/02/07 05:30:45;;;;;;;13.00;7.70;;;;;;;-4.21;65.81;101740.04;105919;1254;60447;-73
2023/02/07 05:33:15;;;;;;;11.00;7.10;;;;;;;-4.27;65.99;101741.55;105719;1257;64351;-74
2023/02/07 05:35:44;;;;;;;12.40;7.30;;;;;;;-4.34;66.18;101748.58;105893;1251;60452;-73
2023/02/07 05:38:14;;;;;;;9.30;6.90;;;;;;;-4.40;66.27;101751.66;106036;1254;60534;-72
2023/02/07 05:40:43;;;;;;;11.00;7.40;;;;;;;-4.46;66.32;101756.10;106133;1253;65898;-72
2023/02/07 05:43:11;;;;;;;10.20;6.90;;;;;;;-4.50;66.29;101766.40;105950;1253;60541;-72
2023/02/07 05:45:39;;;;;;;13.90;7.70;;;;;;;-4.54;66.43;101771.17;105720;1252;65975;-72
2023/02/07 05:48:11;;;;;;;14.50;9.40;;;;;;;-4.57;66.57;101772.20;105962;1251;60435;-73
2023/02/07 05:50:39;;;;;;;17.70;10.50;;;;;;;-4.58;66.69;101769.45;106040;1257;60454;-73
2023/02/07 05:53:08;;;;;;;16.10;10.10;;;;;;;-4.59;66.88;101769.98;105803;1251;66378;-72
2023/02/07 05:55:37;;;;;;;22.80;10.90;;;;;;;-4.58;67.08;101774.44;105766;1257;60539;-72
2023/02/07 05:58:06;;;;;;;18.80;10.60;;;;;;;-4.57;67.15;101770.30;106252;1251;65522;-73
2023/02/07 06:00:34;;;;;;;20.00;10.80;;;;;;;-4.57;67.32;101771.00;105821;1254;60466;-73
2023/02/07 06:03:03;;;;;;;18.80;11.50;;;;;;;-4.59;67.35;101774.27;105988;1253;60433;-72
2023/02/07 06:05:32;;;;;;;18.20;12.00;;;;;;;-4.58;67.52;101777.36;105899;1255;66363;-73
2023/02/07 06:08:00;;;;;;;21.20;13.40;;;;;;;-4.57;67.63;101776.67;105863;1255;60365;-72
2023/02/07 06:10:32;;;;;;;35.60;23.40;;;;;;;-4.56;67.82;101780.28;106243;1253;64685;-73
2023/02/07 06:13:01;;;;;;;56.30;35.50;;;;;;;-4.55;67.95;101779.60;105964;1253;60451;-74
2023/02/07 06:15:30;;;;;;;42.20;27.50;;;;;;;-4.54;68.10;101783.58;106026;1251;60529;-73
2023/02/07 06:17:58;;;;;;;23.80;15.50;;;;;;;-4.52;68.21;101779.81;105930;1251;64864;-74
2023/02/07 06:20:27;;;;;;;21.40;13.50;;;;;;;-4.50;68.33;101783.42;106005;1256;60452;-73
2023/02/07 06:22:56;;;;;;;18.50;12.10;;;;;;;-4.48;68.51;101780.16;105846;1251;65499;-73
2023/02/07 06:25:26;;;;;;;18.00;12.40;;;;;;;-4.45;68.63;101781.53;106077;1253;60898;-74
2023/02/07 06:27:54;;;;;;;17.70;12.20;;;;;;;-4.43;68.77;101783.46;105993;1253;60378;-73
2023/02/07 06:30:22;;;;;;;15.20;10.90;;;;;;;-4.38;68.91;101783.64;106078;1253;66912;-74
2023/02/07 06:32:50;;;;;;;16.30;10.80;;;;;;;-4.32;69.09;101781.95;106051;1253;60543;-73
2023/02/07 06:35:19;;;;;;;16.10;10.50;;;;;;;-4.26;69.21;101781.46;106011;1251;65746;-74
2023/02/07 06:37:47;;;;;;;14.30;10.40;;;;;;;-4.19;69.36;101780.80;106044;1252;60421;-74
2023/02/07 06:40:15;;;;;;;14.50;10.20;;;;;;;-4.12;69.45;101778.07;105896;1251;60364;-72
2023/02/07 06:42:43;;;;;;;12.90;9.40;;;;;;;-4.03;69.59;101783.09;106033;1256;66482;-73
2023/02/07 06:45:11;;;;;;;18.00;11.10;;;;;;;-3.94;69.73;101782.44;106098;1251;60380;-72
2023/02/07 06:47:40;;;;;;;13.50;10.20;;;;;;;-3.86;69.78;101786.23;105865;1251;65543;-72
2023/02/07 06:50:08;;;;;;;14.10;9.90;;;;;;;-3.78;69.79;101787.97;105993;1256;60310;-73
2023/02/07 06:52:37;;;;;;;15.00;10.30;;;;;;;-3.70;69.90;101787.98;105946;1253;60426;-73
2023/02/07 06:55:06;;;;;;;16.00;10.30;;;;;;;-3.62;69.85;101791.61;105961;1251;65373;-73
2023/02/07 06:57:35;;;;;;;14.30;10.00;;;;;;;-3.56;69.78;101794.90;105490;1251;60563;-72
2023/02/07 07:00:04;;;;;;;15.10;9.50;;;;;;;-3.51;69.70;101801.09;105621;1253;65587;-73
2023/02/07 07:02:32;;;;;;;12.60;9.30;;;;;;;-3.46;69.59;101804.71;106235;1253;60417;-73
2023/02/07 07:05:00;;;;;;;14.70;9.80;;;;;;;-3.38;69.50;101806.79;105813;1251;60418;-74
2023/02/07 07:07:29;;;;;;;14.60;10.20;;;;;;;-3.32;69.44;101808.00;105879;1252;66600;-73
2023/02/07 07:09:57;;;;;;;14.50;10.70;;;;;;;-3.28;69.37;101808.86;106042;1253;60554;-74
2023/02/07 07:12:31;;;;;;;13.20;9.10;;;;;;;-3.23;69.27;101814.72;105857;1254;65396;-74
2023/02/07 07:15:00;;;;;;;12.40;9.00;;;;;;;-3.17;69.21;101814.90;105941;1251;60358;-74
2023/02/07 07:17:28;;;;;;;13.00;9.20;;;;;;;-3.11;69.12;101818.67;106015;1252;60934;-73
2023/02/07 07:19:58;;;;;;;14.80;9.40;;;;;;;-3.07;68.90;101823.68;106120;1254;66747;-74
2023/02/07 07:22:27;;;;;;;15.00;10.10;;;;;;;-3.03;68.73;101823.85;106217;1251;60527;-75
2023/02/07 07:24:55;;;;;;;14.50;9.90;;;;;;;-2.98;68.56;101825.92;106022;1251;65244;-74
2023/02/07 07:27:24;;;;;;;20.00;13.70;;;;;;;-2.92;68.54;101831.94;105798;1253;60325;-73
2023/02/07 07:29:52;;;;;;;19.60;12.60;;;;;;;-2.86;68.40;101834.19;105899;1253;60617;-73
2023/02/07 07:32:20;;;;;;;15.20;11.10;;;;;;;-2.81;68.31;101836.08;106141;1256;66920;-73
2023/02/07 07:35:01;;;;;;;14.10;10.20;;;;;;;-2.76;68.14;101833.32;105964;1253;60428;-73
2023/02/07 07:37:30;;;;;;;13.40;9.80;;;;;;;-2.71;67.95;101831.05;106108;1252;65687;-72
2023/02/07 07:39:58;;;;;;;13.70;9.80;;;;;;;-2.67;67.73;101836.23;105661;1253;60435;-73
2023/02/07 07:42:26;;;;;;;12.70;9.30;;;;;;;-2.62;67.69;101838.45;105796;1253;60562;-73
2023/02/07 07:45:03;;;;;;;14.00;9.90;;;;;;;-2.56;67.59;101834.83;106027;1257;66825;-73
2023/02/07 07:47:32;;;;;;;13.00;9.10;;;;;;;-2.49;67.46;101835.16;105975;1257;60703;-74
2023/02/07 07:50:00;;;;;;;153.70;20.50;;;;;;;-2.43;67.39;101837.04;106078;1251;65392;-74
2023/02/07 07:52:28;;;;;;;27.70;10.10;;;;;;;-2.36;67.22;101836.33;105965;1253;60400;-76
2023/02/07 07:54:57;;;;;;;15.70;9.60;;;;;;;-2.28;66.96;101837.69;105877;1257;60429;-73
2023/02/07 07:57:27;;;;;;;14.00;9.50;;;;;;;-2.22;66.86;101835.95;106041;1253;66626;-72
2023/02/07 07:59:59;;;;;;;13.60;9.40;;;;;;;-2.17;66.70;101835.92;106029;1254;60435;-73
2023/02/07 08:02:27;;;;;;;13.10;9.30;;;;;;;-2.11;66.48;101832.28;106160;1251;66727;-75
2023/02/07 08:04:55;;;;;;;19.60;10.10;;;;;;;-2.07;66.19;101837.27;105971;1256;60320;-75
2023/02/07 08:07:24;;;;;;;14.20;10.20;;;;;;;-2.02;66.14;101838.10;105745;1251;60436;-73
2023/02/07 08:09:52;;;;;;;17.60;9.90;;;;;;;-1.99;65.79;101837.05;105814;1258;66865;-79
2023/02/07 08:12:21;;;;;;;15.40;9.50;;;;;;;-1.97;65.61;101835.66;105830;1253;60428;-75
2023/02/07 08:14:49;;;;;;;13.70;10.20;;;;;;;-1.95;65.45;101838.58;105970;1253;65559;-71
2023/02/07 08:17:17;;;;;;;14.10;10.20;;;;;;;-1.91;65.40;101840.14;105859;1253;60442;-73
2023/02/07 08:19:45;;;;;;;15.90;10.40;;;;;;;-1.87;65.26;101843.05;105682;1252;60371;-74
2023/02/07 08:22:14;;;;;;;14.00;9.70;;;;;;;-1.81;65.31;101840.95;105960;1255;66618;-73
2023/02/07 08:24:42;;;;;;;14.30;10.30;;;;;;;-1.75;65.19;101839.18;105844;1253;60457;-75
2023/02/07 08:27:10;;;;;;;14.70;10.10;;;;;;;-1.64;65.22;101848.80;105988;1253;74109;-74
2023/02/07 08:29:38;;;;;;;14.60;10.20;;;;;;;-1.60;64.76;101850.86;106067;1252;60422;-75
2023/02/07 08:32:08;;;;;;;14.70;9.70;;;;;;;-1.60;64.64;101852.41;105968;1251;60463;-76
2023/02/07 08:34:36;;;;;;;14.70;10.80;;;;;;;-1.59;64.54;101847.39;105995;1252;66749;-75
2023/02/07 08:37:08;;;;;;;13.20;10.60;;;;;;;-1.55;64.51;101845.29;106539;1251;60404;-74
2023/02/07 08:39:37;;;;;;;14.60;10.60;;;;;;;-1.49;64.45;101844.21;106311;1252;65266;-74
2023/02/07 08:42:09;;;;;;;14.40;10.50;;;;;;;-1.42;64.42;101840.54;106012;1253;60538;-78
2023/02/07 08:44:39;;;;;;;16.10;10.80;;;;;;;-1.36;64.26;101847.41;105849;1254;60367;-71
2023/02/07 08:47:07;;;;;;;12.90;9.60;;;;;;;-1.30;64.13;101851.17;105940;1255;66893;-79
2023/02/07 08:49:35;;;;;;;16.60;10.50;;;;;;;-1.24;63.99;101847.52;105802;1257;60542;-71
2023/02/07 08:52:03;;;;;;;13.70;10.10;;;;;;;-1.20;63.88;101847.13;106040;1255;64284;-74
2023/02/07 08:54:32;;;;;;;16.90;10.40;;;;;;;-1.16;63.83;101848.84;105791;1253;60888;-76
2023/02/07 08:57:00;;;;;;;27.70;11.60;;;;;;;-1.11;63.85;101847.94;106153;1251;60446;-73
2023/02/07 08:59:31;;;;;;;17.60;11.60;;;;;;;-1.03;63.77;101852.89;106435;1256;66725;-71
2023/02/07 09:01:59;;;;;;;17.10;11.30;;;;;;;-0.96;63.69;101849.89;105933;1253;60499;-77
2023/02/07 09:04:28;;;;;;;14.90;11.00;;;;;;;-0.87;63.87;101848.42;105903;1253;64840;-73
2023/02/07 09:06:56;;;;;;;17.30;10.30;;;;;;;-0.76;63.63;101846.77;106073;1256;61328;-75
2023/02/07 09:09:25;;;;;;;15.60;11.10;;;;;;;-0.70;63.26;101846.52;105682;1253;60510;-76
2023/02/07 09:11:53;;;;;;;13.70;10.30;;;;;;;-0.69;62.96;101848.94;106051;1253;66731;-76
2023/02/07 09:14:22;;;;;;;15.70;11.50;;;;;;;-0.72;62.69;101848.80;106044;1253;60566;-72
2023/02/07 09:16:55;;;;;;;17.10;11.20;;;;;;;-0.71;62.83;101848.27;105777;1256;64764;-72
2023/02/07 09:19:23;;;;;;;14.70;10.90;;;;;;;-0.64;62.89;101848.03;105864;1253;60550;-71
2023/02/07 09:21:53;;;;;;;16.20;11.60;;;;;;;-0.56;62.92;101849.17;106741;1253;60428;-71
2023/02/07 09:24:21;;;;;;;16.20;10.80;;;;;;;-0.47;62.94;101847.17;106718;1252;66438;-71
2023/02/07 09:26:50;;;;;;;16.30;10.80;;;;;;;-0.42;62.77;101847.48;105898;1253;60540;-72
2023/02/07 09:29:20;;;;;;;45.30;12.90;;;;;;;-0.36;62.86;101850.34;105642;1258;63887;-73
2023/02/07 09:31:49;;;;;;;73.30;15.20;;;;;;;-0.24;63.04;101850.21;106110;1256;60543;-72
2023/02/07 09:34:18;;;;;;;26.10;11.90;;;;;;;-0.10;62.89;101845.72;105936;1253;60451;-70
2023/02/07 09:36:48;;;;;;;16.00;10.80;;;;;;;0.01;62.66;101846.11;106046;1254;66237;-72
2023/02/07 09:39:18;;;;;;;13.30;10.00;;;;;;;0.12;62.67;101837.48;106043;1252;60547;-71
2023/02/07 09:42:11;;;;;;;16.30;10.40;;;;;;;0.25;62.51;101839.04;105959;1253;64009;-72
2023/02/07 09:44:53;;;;;;;19.00;10.90;;;;;;;0.37;62.24;101836.97;105854;1256;60531;-72
2023/02/07 09:47:23;;;;;;;20.00;11.30;;;;;;;0.51;62.11;101830.70;105765;1255;60364;-71
2023/02/07 09:50:00;;;;;;;28.00;11.70;;;;;;;0.58;61.56;101833.04;106028;1251;66599;-73
2023/02/07 09:52:42;;;;;;;18.50;11.20;;;;;;;0.60;61.34;101825.56;105953;1253;60416;-75
2023/02/07 09:55:24;;;;;;;17.60;11.70;;;;;;;0.70;61.27;101825.77;105872;1257;65587;-74
2023/02/07 09:57:56;;;;;;;14.90;11.30;;;;;;;0.84;61.30;101824.49;106029;1253;60455;-72
2023/02/07 10:00:32;;;;;;;14.80;10.50;;;;;;;0.93;60.79;101828.85;105871;1254;60429;-72
2023/02/07 10:03:09;;;;;;;13.80;10.40;;;;;;;0.97;60.38;101826.88;105862;1253;66449;-71
2023/02/07 10:06:11;;;;;;;14.00;10.80;;;;;;;1.03;59.94;101828.68;105854;1257;60477;-73
2023/02/07 10:08:46;;;;;;;15.40;10.90;;;;;;;1.15;59.77;101831.25;106009;1256;64883;-73
2023/02/07 10:11:37;;;;;;;13.70;10.50;;;;;;;1.28;59.35;101832.41;106133;1256;60370;-73
2023/02/07 10:14:21;;;;;;;14.60;10.40;;;;;;;1.47;59.19;101828.61;106187;1255;60392;-72
2023/02/07 10:17:11;;;;;;;15.90;12.20;;;;;;;1.64;58.56;101823.92;106041;1253;66581;-74
2023/02/07 10:20:34;;;;;;;12.90;10.40;;;;;;;1.68;57.89;101823.67;105979;1252;60518;-73
2023/02/07 10:23:34;;;;;;;14.60;10.00;;;;;;;1.57;57.11;101821.45;105918;1253;74542;-73
2023/02/07 10:26:26;;;;;;;12.70;9.70;;;;;;;1.41;56.73;101820.90;105909;1256;60448;-73
2023/02/07 10:29:17;;;;;;;13.40;10.00;;;;;;;1.18;56.35;101822.35;105781;1253;60432;-72
2023/02/07 10:31:47;;;;;;;14.50;10.10;;;;;;;0.92;56.15;101824.53;106233;1253;67135;-73
2023/02/07 10:34:20;;;;;;;16.50;9.80;;;;;;;0.71;56.15;101826.42;105942;1253;60543;-73
2023/02/07 10:36:51;;;;;;;12.80;9.00;;;;;;;0.53;56.38;101831.02;105882;1253;64488;-73
2023/02/07 10:39:30;;;;;;;14.30;9.90;;;;;;;0.42;56.49;101832.75;105900;1253;60558;-73
2023/02/07 10:41:58;;;;;;;11.90;9.70;;;;;;;0.41;57.00;101833.45;106109;1253;60417;-73
2023/02/07 10:44:30;;;;;;;13.90;9.80;;;;;;;0.47;57.31;101828.86;105945;1255;66579;-74
2023/02/07 10:47:00;;;;;;;12.90;9.50;;;;;;;0.53;57.44;101827.90;105944;1253;60434;-74
2023/02/07 10:49:31;;;;;;;12.50;9.50;;;;;;;0.56;57.20;101827.34;106071;1256;65495;-74
2023/02/07 10:52:30;;;;;;;12.90;9.30;;;;;;;0.49;56.78;101828.14;106064;1253;60428;-75
2023/02/07 10:55:00;;;;;;;14.10;9.10;;;;;;;0.39;56.96;101833.83;105929;1253;60423;-73
2023/02/07 10:57:29;;;;;;;11.90;9.00;;;;;;;0.34;56.98;101839.63;106098;1252;66415;-76
2023/02/07 11:00:16;;;;;;;12.80;9.40;;;;;;;0.31;56.90;101834.13;106047;1254;60543;-74
2023/02/07 11:03:14;;;;;;;12.90;9.50;;;;;;;0.30;56.88;101839.16;105912;1251;65321;-75
2023/02/07 11:05:52;;;;;;;13.40;8.30;;;;;;;0.28;56.94;101838.83;106048;1253;60402;-74
2023/02/07 11:08:28;;;;;;;17.30;9.50;;;;;;;0.25;56.78;101835.40;106018;1253;60467;-73
2023/02/07 11:10:59;;;;;;;15.50;9.30;;;;;;;0.19;56.66;101834.96;105981;1253;66744;-73
2023/02/07 11:13:28;;;;;;;13.10;9.00;;;;;;;0.13;56.71;101834.88;105877;1253;60437;-73
2023/02/07 11:16:07;;;;;;;13.50;9.30;;;;;;;0.04;56.82;101835.70;105844;1253;65435;-75
2023/02/07 11:18:40;;;;;;;13.50;9.50;;;;;;;-0.02;57.20;101839.55;105937;1252;60460;-72
2023/02/07 11:21:33;;;;;;;14.30;10.30;;;;;;;-0.05;57.50;101843.08;105913;1257;60533;-74
2023/02/07 11:24:30;;;;;;;21.00;12.70;;;;;;;-0.14;57.72;101845.08;105807;1253;65442;-73
2023/02/07 11:27:04;;;;;;;23.00;12.80;;;;;;;-0.22;58.12;101845.34;105858;1251;60499;-73
2023/02/07 11:29:36;;;;;;;24.20;14.70;;;;;;;-0.28;58.49;101844.02;106885;1253;65602;-75
2023/02/07 11:32:04;;;;;;;14.70;10.50;;;;;;;-0.32;58.74;101842.67;105929;1253;60719;-74
2023/02/07 11:34:55;;;;;;;14.80;10.90;;;;;;;-0.35;58.82;101844.80;106050;1257;60415;-74